Bembridge, United Kingdom
Current Conditions -  °F | °C
As of 5:50 AM on Monday 22 Dec 2014 (Local Time) from EGHI Reporting Station
Broken Clouds Broken Clouds  
Wind Chill: 54°   Ceiling: 1600
Heat Index: 54°   Visibility: 6mi
Dew Point: 50°   Wind: 15mph
Humidity: 88%   Direction: 250°WSW
Pressure: 30.12"   Gusts: NA
Location:  50.69°N, 1.08°W
Report Text: EGHI 220550Z 25013KT 210V280 9999 SCT010 BKN016 12/10 Q1020
Loading
Personal Weather Stations






























Interactive Weather Map New forecast layout! Learn more

10-Day Weather Forecast

Advertisements
Track Severe Weather on mobile